This is the latest recevied weather packets stored in our database for station/object K1BES. If no packets are shown the sender has not sent any weather packets the latest 10 day(s).
| Time | Temp. | Humidity | Pressure | Rain* | Wind** | Luminosity | Snow |
|---|---|---|---|---|---|---|---|
| 1777751696 | 28.89° C | 80% | 1012.9 hPa | 0 mm | - | 316 W/m² | - |
| 1777751392 | 28.89° C | 79% | 1012.7 hPa | 0 mm | - | 261 W/m² | - |
| 1777751089 | 28.89° C | 79% | 1012.9 hPa | 0 mm | - | 413 W/m² | - |
| 1777750784 | 28.89° C | 80% | 1013 hPa | 0 mm | - | 475 W/m² | - |
| 1777750482 | 29.44° C | 78% | 1012.9 hPa | 0 mm | - | 611 W/m² | - |
| 1777750178 | 29.44° C | 79% | 1013.1 hPa | 0 mm | - | 327 W/m² | - |
| 1777749875 | 29.44° C | 78% | 1013.3 hPa | 0 mm | - | 320 W/m² | - |
| 1777749571 | 30° C | 76% | 1013 hPa | 0 mm | - | 407 W/m² | - |
| 1777749270 | 30° C | 76% | 1013.1 hPa | 0 mm | - | 626 W/m² | - |
| 1777748967 | 30.56° C | 75% | 1013.4 hPa | 0 mm | - | 628 W/m² | - |
| 1777748664 | 30° C | 76% | 1013.4 hPa | 0 mm | - | 481 W/m² | - |
| 1777748360 | 30.56° C | 75% | 1013.4 hPa | 0 mm | - | 846 W/m² | - |
| 1777748055 | 30.56° C | 74% | 1013.5 hPa | 0 mm | - | 855 W/m² | - |
| 1777747753 | 30.56° C | 75% | 1013.2 hPa | 0 mm | - | 883 W/m² | - |
| 1777747448 | 30° C | 76% | 1013.5 hPa | 0 mm | - | 908 W/m² | - |
| 1777747145 | 30.56° C | 74% | 1013.7 hPa | 0 mm | - | 951 W/m² | - |
| 1777746841 | 30.56° C | 74% | 1013.7 hPa | 0 mm | - | 1007 W/m² | - |
| 1777746536 | 30.56° C | 75% | 1013.6 hPa | 0 mm | - | 975 W/m² | - |
| 1777746232 | 31.11° C | 73% | 1013.7 hPa | 0 mm | - | 926 W/m² | - |
| 1777745928 | 30.56° C | 77% | 1013.9 hPa | 0 mm | - | 1006 W/m² | - |
| 1777745627 | 30° C | 77% | 1014.1 hPa | 0 mm | - | 1010 W/m² | - |
| 1777745325 | 30° C | 77% | 1014 hPa | 0 mm | - | 969 W/m² | - |
| 1777745022 | 30° C | 76% | 1014 hPa | 0 mm | - | 1066 W/m² | - |
| 1777744718 | 30° C | 78% | 1013.8 hPa | 0 mm | - | 984 W/m² | - |
| 1777744412 | 31.11° C | 75% | 1014 hPa | 0 mm | - | 780 W/m² | - |
* Rain latest hour (hover to see other rain measurements)
** Current wind speed in m/s (hover to see current wind gust speed)